THY2EU UUWW-LTFM
Flight info
| Callsign | THY2EU |
|---|---|
| Flight time | N/A |
| Altitude | 40000 |
| Route | POKAG3Z POKAG N858 VEPIS Y219 LAPKI N869 OSMUS Z369 BRT L856 TOSPO/N0495F400 DCT LUGUG DCT GAWOR DCT ROBTU/N0488F410 DCT KENIN DCT LARMU DCT RUTUV DCT RONBU DCT BUVAK DCT EMO DCT VABUR DCT RIXEN |
| Aircraft | A359/H-SDE2E3GHIJ3J4J5LM1ORWXY/LB1D1 |
Departure
| Time | 2026-04-28 16:22 |
|---|---|
| Airport | Vnukovo International Airport (UUWW) |
Arrival
| Time | N/A |
|---|---|
| Airport | İstanbul Airport (LTFM) |
| Time | Latitude | Longitude | Altitude | Speed | Heading |
|---|---|---|---|---|---|
| 2026-04-28 16:03 | 55.60217 | 37.27975 | 686 ft | 0 kts | 69° |
| 2026-04-28 16:13 | 55.60207 | 37.27919 | 678 ft | 2 kts | 75° |
| 2026-04-28 16:13 | 55.60203 | 37.27889 | 678 ft | 3 kts | 85° |
| 2026-04-28 16:13 | 55.60215 | 37.27830 | 678 ft | 3 kts | 150° |
| 2026-04-28 16:14 | 55.60221 | 37.27823 | 678 ft | 0 kts | 163° |
| 2026-04-28 16:16 | 55.60221 | 37.27824 | 678 ft | 0 kts | 163° |
| 2026-04-28 16:16 | 55.60191 | 37.27845 | 678 ft | 5 kts | 155° |
| 2026-04-28 16:17 | 55.60133 | 37.27912 | 680 ft | 5 kts | 139° |
| 2026-04-28 16:17 | 55.60109 | 37.27954 | 684 ft | 8 kts | 131° |
| 2026-04-28 16:17 | 55.60083 | 37.28047 | 679 ft | 8 kts | 108° |
| 2026-04-28 16:17 | 55.60077 | 37.28142 | 683 ft | 10 kts | 89° |
| 2026-04-28 16:18 | 55.60082 | 37.28299 | 680 ft | 11 kts | 84° |
| 2026-04-28 16:18 | 55.60098 | 37.28422 | 679 ft | 10 kts | 62° |
| 2026-04-28 16:18 | 55.60136 | 37.28509 | 680 ft | 8 kts | 49° |
| 2026-04-28 16:18 | 55.60171 | 37.28577 | 678 ft | 7 kts | 45° |
| 2026-04-28 16:19 | 55.60200 | 37.28636 | 678 ft | 5 kts | 61° |
| 2026-04-28 16:19 | 55.60205 | 37.28698 | 683 ft | 13 kts | 95° |
| 2026-04-28 16:19 | 55.60140 | 37.28829 | 682 ft | 13 kts | 142° |
| 2026-04-28 16:19 | 55.60068 | 37.28894 | 679 ft | 9 kts | 168° |
| 2026-04-28 16:20 | 55.60019 | 37.28911 | 683 ft | 11 kts | 168° |
| 2026-04-28 16:20 | 55.59930 | 37.28948 | 687 ft | 13 kts | 167° |
| 2026-04-28 16:20 | 55.59865 | 37.28974 | 686 ft | 6 kts | 166° |
| 2026-04-28 16:20 | 55.59788 | 37.28936 | 690 ft | 17 kts | 235° |
| 2026-04-28 16:21 | 55.59756 | 37.28822 | 688 ft | 0 kts | 244° |
| 2026-04-28 16:21 | 55.59755 | 37.28819 | 689 ft | 4 kts | 246° |
| 2026-04-28 16:21 | 55.59661 | 37.28391 | 685 ft | 71 kts | 248° |
| 2026-04-28 16:21 | 55.59388 | 37.27185 | 673 ft | 140 kts | 248° |
| 2026-04-28 16:22 | 55.58975 | 37.25450 | 1181 ft | 150 kts | 246° |
| 2026-04-28 16:22 | 55.58492 | 37.23867 | 1989 ft | 145 kts | 246° |
| 2026-04-28 16:22 | 55.57926 | 37.22299 | 2505 ft | 161 kts | 246° |
| 2026-04-28 16:22 | 55.57234 | 37.20532 | 2746 ft | 188 kts | 244° |
| 2026-04-28 16:23 | 55.56444 | 37.18547 | 3188 ft | 205 kts | 244° |
| 2026-04-28 16:23 | 55.55610 | 37.16454 | 3893 ft | 209 kts | 244° |
| 2026-04-28 16:23 | 55.54967 | 37.14200 | 4580 ft | 203 kts | 263° |
| 2026-04-28 16:23 | 55.54813 | 37.11747 | 5335 ft | 201 kts | 275° |
| 2026-04-28 16:24 | 55.54812 | 37.09270 | 6143 ft | 202 kts | 275° |
| 2026-04-28 16:24 | 55.54957 | 37.06812 | 6873 ft | 202 kts | 287° |
| 2026-04-28 16:24 | 55.55584 | 37.04602 | 7575 ft | 204 kts | 310° |
| 2026-04-28 16:24 | 55.56705 | 37.03071 | 8191 ft | 216 kts | 332° |
| 2026-04-28 16:25 | 55.58217 | 37.02515 | 8852 ft | 229 kts | 352° |
| 2026-04-28 16:25 | 55.59839 | 37.02507 | 9522 ft | 235 kts | 355° |
| 2026-04-28 16:25 | 55.61473 | 37.02562 | 9806 ft | 234 kts | 354° |
| 2026-04-28 16:25 | 55.63106 | 37.02596 | 9829 ft | 234 kts | 353° |
| 2026-04-28 16:26 | 55.64700 | 37.02227 | 9827 ft | 230 kts | 339° |
| 2026-04-28 16:26 | 55.66234 | 37.01253 | 9829 ft | 243 kts | 334° |
| 2026-04-28 16:26 | 55.67813 | 37.00098 | 9826 ft | 247 kts | 334° |
| 2026-04-28 16:26 | 55.69400 | 36.98924 | 9823 ft | 248 kts | 334° |
| 2026-04-28 16:27 | 55.70997 | 36.97746 | 9827 ft | 248 kts | 334° |
| 2026-04-28 16:27 | 55.72597 | 36.96571 | 9823 ft | 248 kts | 334° |
| 2026-04-28 16:27 | 55.75786 | 36.94191 | 10148 ft | 251 kts | 333° |
| 2026-04-28 16:28 | 55.77376 | 36.92966 | 10858 ft | 252 kts | 334° |
| 2026-04-28 16:28 | 55.78468 | 36.92127 | 11383 ft | 254 kts | 334° |
| 2026-04-28 16:28 | 55.80537 | 36.90146 | 12292 ft | 258 kts | 321° |
| 2026-04-28 16:28 | 55.81745 | 36.87794 | 12721 ft | 263 kts | 303° |
| 2026-04-28 16:29 | 55.82876 | 36.81177 | 13506 ft | 293 kts | 285° |
| 2026-04-28 16:29 | 55.83193 | 36.73822 | 13805 ft | 310 kts | 265° |
| 2026-04-28 16:30 | 55.82454 | 36.70142 | 14081 ft | 322 kts | 251° |
| 2026-04-28 16:30 | 55.81451 | 36.66549 | 14753 ft | 324 kts | 250° |
| 2026-04-28 16:30 | 55.80433 | 36.62974 | 15411 ft | 326 kts | 250° |
| 2026-04-28 16:30 | 55.79427 | 36.59416 | 16020 ft | 328 kts | 250° |
| 2026-04-28 16:31 | 55.78395 | 36.55750 | 16640 ft | 331 kts | 250° |
| 2026-04-28 16:31 | 55.77356 | 36.52052 | 17230 ft | 335 kts | 250° |
| 2026-04-28 16:31 | 55.76393 | 36.48263 | 17742 ft | 337 kts | 256° |
| 2026-04-28 16:31 | 55.75727 | 36.44228 | 18072 ft | 345 kts | 262° |
| 2026-04-28 16:32 | 55.75157 | 36.40018 | 18291 ft | 356 kts | 262° |
| 2026-04-28 16:32 | 55.73977 | 36.31232 | 18723 ft | 378 kts | 262° |
| 2026-04-28 16:32 | 55.73349 | 36.26637 | 18951 ft | 387 kts | 261° |
| 2026-04-28 16:33 | 55.72706 | 36.21968 | 19326 ft | 391 kts | 261° |
| 2026-04-28 16:33 | 55.72495 | 36.20445 | 19458 ft | 393 kts | 261° |
| 2026-04-28 16:33 | 55.71393 | 36.12500 | 20137 ft | 398 kts | 261° |
| 2026-04-28 16:33 | 55.70735 | 36.07777 | 20560 ft | 401 kts | 261° |
| 2026-04-28 16:34 | 55.70063 | 36.02963 | 20950 ft | 404 kts | 261° |
| 2026-04-28 16:34 | 55.69382 | 35.98101 | 21357 ft | 407 kts | 261° |
| 2026-04-28 16:34 | 55.68695 | 35.93209 | 21749 ft | 410 kts | 261° |
| 2026-04-28 16:34 | 55.68001 | 35.88280 | 22151 ft | 412 kts | 261° |
| 2026-04-28 16:35 | 55.67311 | 35.83393 | 22492 ft | 415 kts | 260° |
| 2026-04-28 16:35 | 55.66604 | 35.78403 | 22857 ft | 419 kts | 260° |
| 2026-04-28 16:35 | 55.65890 | 35.73386 | 23271 ft | 421 kts | 260° |
| 2026-04-28 16:35 | 55.65171 | 35.68350 | 23654 ft | 423 kts | 260° |
| 2026-04-28 16:36 | 55.64444 | 35.63273 | 23999 ft | 426 kts | 259° |
| 2026-04-28 16:36 | 55.63716 | 35.58176 | 24354 ft | 428 kts | 260° |
| 2026-04-28 16:36 | 55.63154 | 35.53005 | 24718 ft | 427 kts | 265° |
| 2026-04-28 16:36 | 55.62777 | 35.47776 | 25049 ft | 429 kts | 268° |
| 2026-04-28 16:37 | 55.62477 | 35.42517 | 25411 ft | 431 kts | 268° |
| 2026-04-28 16:37 | 55.62204 | 35.37213 | 25779 ft | 434 kts | 269° |
| 2026-04-28 16:37 | 55.61931 | 35.31868 | 26158 ft | 436 kts | 269° |
| 2026-04-28 16:38 | 55.61355 | 35.21185 | 26929 ft | 442 kts | 268° |
| 2026-04-28 16:38 | 55.61044 | 35.15738 | 27330 ft | 444 kts | 268° |
| 2026-04-28 16:38 | 55.60724 | 35.10279 | 27721 ft | 447 kts | 268° |
| 2026-04-28 16:38 | 55.60400 | 35.04778 | 28164 ft | 450 kts | 267° |
| 2026-04-28 16:39 | 55.60078 | 34.99328 | 28585 ft | 452 kts | 267° |
| 2026-04-28 16:39 | 55.59747 | 34.93768 | 28988 ft | 455 kts | 267° |
| 2026-04-28 16:39 | 55.59411 | 34.88183 | 29393 ft | 458 kts | 267° |
| 2026-04-28 16:39 | 55.59070 | 34.82561 | 29794 ft | 461 kts | 267° |
| 2026-04-28 16:40 | 55.58726 | 34.76908 | 30147 ft | 464 kts | 267° |
| 2026-04-28 16:40 | 55.58375 | 34.71199 | 30461 ft | 467 kts | 266° |
| 2026-04-28 16:40 | 55.58021 | 34.65483 | 30773 ft | 469 kts | 266° |
| 2026-04-28 16:40 | 55.57663 | 34.59736 | 31075 ft | 472 kts | 266° |
| 2026-04-28 16:41 | 55.57299 | 34.53952 | 31356 ft | 475 kts | 266° |
| 2026-04-28 16:41 | 55.56931 | 34.48137 | 31635 ft | 477 kts | 266° |
| 2026-04-28 16:41 | 55.56559 | 34.42298 | 31912 ft | 479 kts | 266° |
| 2026-04-28 16:41 | 55.56182 | 34.36433 | 32155 ft | 482 kts | 266° |
| 2026-04-28 16:42 | 55.55801 | 34.30542 | 32366 ft | 484 kts | 266° |
| 2026-04-28 16:42 | 55.55414 | 34.24610 | 32588 ft | 486 kts | 266° |
| 2026-04-28 16:42 | 55.55030 | 34.18761 | 32943 ft | 486 kts | 265° |
| 2026-04-28 16:42 | 55.54637 | 34.12837 | 33268 ft | 485 kts | 265° |
| 2026-04-28 16:43 | 55.54242 | 34.06924 | 33636 ft | 484 kts | 265° |
| 2026-04-28 16:43 | 55.53846 | 34.01033 | 34030 ft | 482 kts | 265° |
| 2026-04-28 16:43 | 55.53449 | 33.95157 | 34268 ft | 483 kts | 265° |
| 2026-04-28 16:43 | 55.53047 | 33.89249 | 34400 ft | 486 kts | 265° |
| 2026-04-28 16:44 | 55.52641 | 33.83335 | 34673 ft | 484 kts | 265° |
| 2026-04-28 16:44 | 55.52234 | 33.77447 | 34977 ft | 483 kts | 265° |
| 2026-04-28 16:44 | 55.51823 | 33.71543 | 35159 ft | 485 kts | 264° |
| 2026-04-28 16:44 | 55.51361 | 33.65642 | 35327 ft | 487 kts | 261° |
| 2026-04-28 16:45 | 55.50635 | 33.59814 | 35647 ft | 485 kts | 259° |
| 2026-04-28 16:45 | 55.50112 | 33.55967 | 35825 ft | 485 kts | 258° |
| 2026-04-28 16:45 | 55.49297 | 33.50186 | 35956 ft | 488 kts | 258° |
| 2026-04-28 16:45 | 55.48178 | 33.42492 | 36233 ft | 488 kts | 258° |
| 2026-04-28 16:46 | 55.47326 | 33.36716 | 36545 ft | 486 kts | 257° |
| 2026-04-28 16:46 | 55.46749 | 33.32819 | 36682 ft | 487 kts | 257° |
| 2026-04-28 16:46 | 55.45613 | 33.25156 | 36898 ft | 488 kts | 257° |
| 2026-04-28 16:46 | 55.45043 | 33.21312 | 37100 ft | 487 kts | 257° |
| 2026-04-28 16:47 | 55.44184 | 33.15524 | 37351 ft | 487 kts | 257° |
| 2026-04-28 16:47 | 55.43324 | 33.09744 | 37489 ft | 488 kts | 257° |
| 2026-04-28 16:47 | 55.42460 | 33.03952 | 37704 ft | 488 kts | 257° |
| 2026-04-28 16:47 | 55.41597 | 32.98183 | 37993 ft | 486 kts | 257° |
| 2026-04-28 16:48 | 55.40742 | 32.92488 | 37991 ft | 488 kts | 257° |
| 2026-04-28 16:48 | 55.38998 | 32.80944 | 37935 ft | 488 kts | 257° |
| 2026-04-28 16:49 | 55.37242 | 32.69389 | 37950 ft | 488 kts | 257° |
| 2026-04-28 16:49 | 55.35477 | 32.57868 | 37952 ft | 487 kts | 257° |
| 2026-04-28 16:50 | 55.33714 | 32.46432 | 37952 ft | 488 kts | 257° |
| 2026-04-28 16:50 | 55.31932 | 32.34957 | 37959 ft | 487 kts | 256° |
| 2026-04-28 16:51 | 55.30134 | 32.23457 | 37961 ft | 487 kts | 257° |
| 2026-04-28 16:51 | 55.28328 | 32.11982 | 37961 ft | 488 kts | 256° |
| 2026-04-28 16:52 | 55.26521 | 32.00584 | 37968 ft | 489 kts | 256° |
| 2026-04-28 16:52 | 55.24688 | 31.89097 | 37968 ft | 489 kts | 256° |
| 2026-04-28 16:53 | 55.22842 | 31.77606 | 37971 ft | 490 kts | 256° |
| 2026-04-28 16:53 | 55.20980 | 31.66094 | 37974 ft | 490 kts | 256° |
| 2026-04-28 16:54 | 55.19123 | 31.54695 | 37977 ft | 490 kts | 256° |
| 2026-04-28 16:54 | 55.17244 | 31.43231 | 37970 ft | 490 kts | 256° |
| 2026-04-28 16:55 | 55.15351 | 31.31760 | 37985 ft | 491 kts | 256° |
| 2026-04-28 16:55 | 55.13446 | 31.20293 | 37984 ft | 490 kts | 256° |
| 2026-04-28 16:56 | 55.11530 | 31.08840 | 37985 ft | 491 kts | 256° |
| 2026-04-28 16:56 | 55.09415 | 30.97577 | 37993 ft | 493 kts | 248° |
| 2026-04-28 16:57 | 55.06577 | 30.86653 | 37990 ft | 493 kts | 247° |
| 2026-04-28 16:57 | 55.03610 | 30.75837 | 37993 ft | 493 kts | 246° |
| 2026-04-28 16:58 | 55.00643 | 30.65133 | 37994 ft | 493 kts | 246° |
| 2026-04-28 16:58 | 54.97658 | 30.54360 | 37994 ft | 493 kts | 246° |
| 2026-04-28 16:59 | 54.94675 | 30.43617 | 37994 ft | 493 kts | 246° |
| 2026-04-28 16:59 | 54.91680 | 30.32868 | 37996 ft | 493 kts | 246° |
| 2026-04-28 17:00 | 54.88676 | 30.22140 | 38000 ft | 493 kts | 246° |
| 2026-04-28 17:00 | 54.85681 | 30.11497 | 38006 ft | 493 kts | 246° |
| 2026-04-28 17:01 | 54.82656 | 30.00794 | 38011 ft | 494 kts | 246° |
| 2026-04-28 17:01 | 54.79616 | 29.90090 | 38021 ft | 495 kts | 246° |
| 2026-04-28 17:02 | 54.76563 | 29.79389 | 38021 ft | 495 kts | 246° |
| 2026-04-28 17:02 | 54.73501 | 29.68706 | 38030 ft | 494 kts | 246° |
| 2026-04-28 17:03 | 54.68917 | 29.52804 | 38040 ft | 494 kts | 246° |
| 2026-04-28 17:03 | 54.65856 | 29.42139 | 38037 ft | 494 kts | 246° |
| 2026-04-28 17:04 | 54.61422 | 29.26076 | 38044 ft | 494 kts | 247° |
| 2026-04-28 17:05 | 54.56975 | 29.10082 | 38053 ft | 495 kts | 246° |
| 2026-04-28 17:06 | 54.52462 | 28.94052 | 38053 ft | 495 kts | 246° |
| 2026-04-28 17:06 | 54.47934 | 28.78062 | 38065 ft | 495 kts | 247° |
| 2026-04-28 17:07 | 54.45159 | 28.67313 | 38061 ft | 494 kts | 249° |
| 2026-04-28 17:07 | 54.42471 | 28.56451 | 38070 ft | 494 kts | 249° |
| 2026-04-28 17:08 | 54.39741 | 28.45599 | 38078 ft | 494 kts | 249° |
| 2026-04-28 17:08 | 54.36979 | 28.34817 | 38078 ft | 494 kts | 249° |
| 2026-04-28 17:09 | 54.34191 | 28.24027 | 38080 ft | 494 kts | 249° |
| 2026-04-28 17:09 | 54.31412 | 28.13322 | 38069 ft | 494 kts | 249° |
| 2026-04-28 17:10 | 54.28608 | 28.02566 | 38084 ft | 493 kts | 249° |
| 2026-04-28 17:10 | 54.25801 | 27.91846 | 38092 ft | 493 kts | 248° |
| 2026-04-28 17:11 | 54.22983 | 27.81133 | 38091 ft | 493 kts | 248° |
| 2026-04-28 17:11 | 54.20155 | 27.70438 | 38096 ft | 493 kts | 248° |
| 2026-04-28 17:12 | 54.17337 | 27.59829 | 38095 ft | 493 kts | 248° |
| 2026-04-28 17:12 | 54.14491 | 27.49164 | 38107 ft | 493 kts | 248° |
| 2026-04-28 17:13 | 54.11638 | 27.38525 | 38107 ft | 492 kts | 248° |
| 2026-04-28 17:13 | 54.08493 | 27.28197 | 38112 ft | 495 kts | 244° |
| 2026-04-28 17:14 | 54.05097 | 27.17995 | 38101 ft | 495 kts | 243° |
| 2026-04-28 17:14 | 54.01660 | 27.07838 | 38115 ft | 495 kts | 243° |
| 2026-04-28 17:15 | 53.98220 | 26.97708 | 38107 ft | 494 kts | 243° |
| 2026-04-28 17:15 | 53.94781 | 26.87599 | 38115 ft | 494 kts | 243° |
| 2026-04-28 17:16 | 53.91355 | 26.77564 | 38123 ft | 494 kts | 243° |
| 2026-04-28 17:16 | 53.87148 | 26.68261 | 38114 ft | 499 kts | 230° |
| 2026-04-28 17:17 | 53.82286 | 26.59854 | 38118 ft | 500 kts | 228° |
| 2026-04-28 17:17 | 53.77316 | 26.51609 | 38127 ft | 499 kts | 227° |
| 2026-04-28 17:18 | 53.72356 | 26.43400 | 38128 ft | 499 kts | 228° |
| 2026-04-28 17:18 | 53.67440 | 26.35241 | 38136 ft | 499 kts | 228° |
| 2026-04-28 17:19 | 53.62484 | 26.27023 | 38126 ft | 499 kts | 228° |
| 2026-04-28 17:19 | 53.57535 | 26.18840 | 38138 ft | 498 kts | 228° |
| 2026-04-28 17:20 | 53.53420 | 26.12061 | 38137 ft | 498 kts | 228° |
| 2026-04-28 17:20 | 53.47630 | 26.02557 | 38146 ft | 498 kts | 228° |
| 2026-04-28 17:21 | 53.42693 | 25.94482 | 38126 ft | 498 kts | 228° |
| 2026-04-28 17:22 | 53.35228 | 25.82328 | 38148 ft | 497 kts | 228° |
| 2026-04-28 17:22 | 53.30292 | 25.74324 | 38148 ft | 497 kts | 228° |
| 2026-04-28 17:23 | 53.22814 | 25.62249 | 38152 ft | 497 kts | 227° |
| 2026-04-28 17:23 | 53.17856 | 25.54279 | 38154 ft | 497 kts | 227° |
| 2026-04-28 17:24 | 53.12862 | 25.46278 | 38157 ft | 497 kts | 227° |
| 2026-04-28 17:24 | 53.07867 | 25.38302 | 38161 ft | 497 kts | 227° |
| 2026-04-28 17:25 | 53.00392 | 25.26415 | 38171 ft | 497 kts | 227° |
| 2026-04-28 17:26 | 52.95392 | 25.18500 | 38170 ft | 496 kts | 227° |
| 2026-04-28 17:26 | 52.90388 | 25.10603 | 38172 ft | 496 kts | 227° |
| 2026-04-28 17:27 | 52.85382 | 25.02729 | 38179 ft | 496 kts | 227° |
| 2026-04-28 17:27 | 52.80402 | 24.94923 | 38179 ft | 495 kts | 227° |
| 2026-04-28 17:28 | 52.75376 | 24.87071 | 38186 ft | 495 kts | 227° |
| 2026-04-28 17:28 | 52.67861 | 24.75377 | 38190 ft | 496 kts | 227° |
| 2026-04-28 17:29 | 52.62828 | 24.67580 | 38188 ft | 496 kts | 227° |
| 2026-04-28 17:30 | 52.55314 | 24.55986 | 38195 ft | 495 kts | 227° |
| 2026-04-28 17:30 | 52.47753 | 24.44376 | 38194 ft | 495 kts | 227° |
| 2026-04-28 17:31 | 52.40231 | 24.32884 | 38197 ft | 494 kts | 227° |
| 2026-04-28 17:32 | 52.32674 | 24.21393 | 38202 ft | 494 kts | 227° |
| 2026-04-28 17:32 | 52.27627 | 24.13750 | 38206 ft | 494 kts | 227° |
| 2026-04-28 17:33 | 52.23428 | 24.07412 | 38198 ft | 494 kts | 227° |
| 2026-04-28 17:33 | 52.19229 | 24.01089 | 38208 ft | 493 kts | 227° |
| 2026-04-28 17:34 | 52.13343 | 23.92249 | 38208 ft | 492 kts | 227° |
| 2026-04-28 17:34 | 52.08962 | 23.83823 | 38211 ft | 484 kts | 239° |
| 2026-04-28 17:35 | 52.05125 | 23.74824 | 38199 ft | 484 kts | 241° |
| 2026-04-28 17:35 | 52.00913 | 23.66350 | 38212 ft | 491 kts | 228° |
| 2026-04-28 17:36 | 51.95424 | 23.59591 | 38199 ft | 497 kts | 219° |
| 2026-04-28 17:36 | 51.89632 | 23.53426 | 38221 ft | 498 kts | 218° |
| 2026-04-28 17:37 | 51.83800 | 23.47355 | 38218 ft | 498 kts | 218° |
| 2026-04-28 17:37 | 51.78036 | 23.41318 | 38225 ft | 497 kts | 218° |
| 2026-04-28 17:38 | 51.72233 | 23.35215 | 38227 ft | 497 kts | 218° |
| 2026-04-28 17:38 | 51.66441 | 23.29131 | 38230 ft | 497 kts | 218° |
| 2026-04-28 17:39 | 51.60633 | 23.23049 | 38224 ft | 497 kts | 219° |
| 2026-04-28 17:40 | 51.51923 | 23.13969 | 38243 ft | 498 kts | 218° |
| 2026-04-28 17:40 | 51.46140 | 23.07965 | 38235 ft | 498 kts | 218° |
| 2026-04-28 17:41 | 51.40231 | 23.02135 | 38232 ft | 503 kts | 212° |
| 2026-04-28 17:41 | 51.33542 | 22.98470 | 38236 ft | 512 kts | 199° |
| 2026-04-28 17:42 | 51.26608 | 22.96039 | 38237 ft | 514 kts | 197° |
| 2026-04-28 17:42 | 51.19575 | 22.93777 | 38251 ft | 514 kts | 197° |
| 2026-04-28 17:43 | 51.12568 | 22.91495 | 38239 ft | 513 kts | 197° |
| 2026-04-28 17:43 | 51.05566 | 22.89176 | 38239 ft | 513 kts | 197° |
| 2026-04-28 17:44 | 50.98579 | 22.86852 | 38240 ft | 513 kts | 197° |
| 2026-04-28 17:44 | 50.91630 | 22.84547 | 38240 ft | 512 kts | 197° |
| 2026-04-28 17:45 | 50.84639 | 22.82238 | 38238 ft | 512 kts | 197° |
| 2026-04-28 17:45 | 50.77662 | 22.79940 | 38242 ft | 512 kts | 197° |
| 2026-04-28 17:46 | 50.70730 | 22.77666 | 38239 ft | 511 kts | 197° |
| 2026-04-28 17:46 | 50.63754 | 22.75384 | 38243 ft | 510 kts | 197° |
| 2026-04-28 17:47 | 50.56789 | 22.73111 | 38240 ft | 510 kts | 197° |
| 2026-04-28 17:47 | 50.49826 | 22.70846 | 38220 ft | 510 kts | 197° |
| 2026-04-28 17:48 | 50.42918 | 22.68607 | 38241 ft | 509 kts | 197° |
| 2026-04-28 17:48 | 50.35968 | 22.66360 | 38240 ft | 509 kts | 197° |
| 2026-04-28 17:49 | 50.29015 | 22.64118 | 38236 ft | 509 kts | 197° |
| 2026-04-28 17:49 | 50.22069 | 22.61886 | 38238 ft | 509 kts | 197° |
| 2026-04-28 17:50 | 50.15170 | 22.59675 | 38234 ft | 509 kts | 197° |
| 2026-04-28 17:50 | 50.08228 | 22.57457 | 38233 ft | 509 kts | 197° |
| 2026-04-28 17:51 | 50.01285 | 22.55246 | 38229 ft | 509 kts | 197° |
| 2026-04-28 17:51 | 49.94352 | 22.53044 | 38227 ft | 508 kts | 197° |
| 2026-04-28 17:52 | 49.87420 | 22.50848 | 38227 ft | 508 kts | 197° |
| 2026-04-28 17:52 | 49.77070 | 22.47583 | 38227 ft | 506 kts | 197° |
| 2026-04-28 17:53 | 49.70174 | 22.45416 | 38228 ft | 505 kts | 197° |
| 2026-04-28 17:53 | 49.63273 | 22.43253 | 38227 ft | 505 kts | 197° |
| 2026-04-28 17:54 | 49.56380 | 22.41099 | 38230 ft | 505 kts | 197° |
| 2026-04-28 17:54 | 49.49477 | 22.38947 | 38210 ft | 505 kts | 197° |
| 2026-04-28 17:55 | 49.42638 | 22.36822 | 38207 ft | 505 kts | 197° |
| 2026-04-28 17:55 | 49.35747 | 22.34686 | 38203 ft | 505 kts | 198° |
| 2026-04-28 17:56 | 49.28849 | 22.32554 | 38209 ft | 505 kts | 198° |
| 2026-04-28 17:56 | 49.21954 | 22.30416 | 38201 ft | 504 kts | 198° |
| 2026-04-28 17:57 | 49.15493 | 22.26782 | 38192 ft | 488 kts | 216° |
| 2026-04-28 17:57 | 49.10283 | 22.20518 | 38196 ft | 470 kts | 235° |
| 2026-04-28 17:58 | 49.06082 | 22.12918 | 38195 ft | 468 kts | 238° |
| 2026-04-28 17:58 | 49.02039 | 22.05147 | 38188 ft | 468 kts | 238° |
| 2026-04-28 17:59 | 48.97978 | 21.97396 | 38188 ft | 468 kts | 238° |
| 2026-04-28 17:59 | 48.95857 | 21.93609 | 38191 ft | 473 kts | 233° |